Time;durP1;ratioP1;P1;durP2;ratioP2;P2;SDS_P1;SDS_P2;PMS_P1;PMS_P2;Temp;Humidity;BMP_temperature;BMP_pressure;BME280_temperature;BME280_humidity;BME280_pressure;Samples;Min_cycle;Max_cycle;Signal;HPM_P1;HPM_P2
2023/04/23 00:02:51;;;;;;;23.20;16.00;;;;;;;9.42;88.22;99691.55;178466;1260;45951;-89
2023/04/23 00:06:56;;;;;;;16.40;13.20;;;;;;;9.36;88.43;99692.43;177781;1259;45970;-89
2023/04/23 00:11:00;;;;;;;19.90;14.50;;;;;;;9.37;88.45;99690.28;177721;1260;58451;-88
2023/04/23 00:15:06;;;;;;;23.20;15.60;;;;;;;9.35;88.36;99686.52;178010;1259;46024;-88
2023/04/23 00:19:09;;;;;;;18.10;13.60;;;;;;;9.37;88.21;99688.30;178566;1259;46067;-89
2023/04/23 00:23:12;;;;;;;20.10;14.40;;;;;;;9.34;88.34;99685.20;178240;1259;46057;-89
2023/04/23 00:27:17;;;;;;;17.90;13.50;;;;;;;9.32;88.42;99684.14;178699;1259;45971;-89
2023/04/23 00:31:23;;;;;;;30.10;15.70;;;;;;;9.34;88.34;99678.65;178918;1259;58327;-89
2023/04/23 00:35:26;;;;;;;23.50;14.70;;;;;;;9.42;88.04;99667.70;179344;1259;44569;-88
2023/04/23 00:39:30;;;;;;;18.50;12.20;;;;;;;9.51;87.75;99662.36;179211;1258;44800;-89
2023/04/23 00:43:34;;;;;;;19.40;11.80;;;;;;;9.53;87.55;99658.44;179388;1259;44143;-91
2023/04/23 00:47:45;;;;;;;16.00;14.20;;;;;;;9.56;87.39;99659.23;179422;1260;44646;-90
2023/04/23 00:51:50;;;;;;;20.30;14.00;;;;;;;9.56;87.07;99653.70;179980;1260;59380;-90
2023/04/23 00:55:54;;;;;;;24.40;11.90;;;;;;;9.53;87.05;99650.67;179211;1260;45243;-90
2023/04/23 00:59:58;;;;;;;14.10;12.40;;;;;;;9.51;87.05;99647.78;178750;1259;46137;-89
2023/04/23 01:04:02;;;;;;;19.40;11.80;;;;;;;9.52;87.00;99646.46;178823;1259;45953;-90
2023/04/23 01:08:09;;;;;;;21.80;13.40;;;;;;;9.55;86.94;99644.64;179840;1259;46066;-87
2023/04/23 01:12:56;;;;;;;14.60;11.20;;;;;;;9.56;86.70;99640.14;179905;1261;57969;-89
2023/04/23 01:17:03;;;;;;;14.00;11.40;;;;;;;9.54;86.88;99642.96;179731;1261;45931;-90
2023/04/23 01:21:10;;;;;;;18.70;12.40;;;;;;;9.53;86.82;99642.54;179898;1261;45368;-89
2023/04/23 01:25:18;;;;;;;16.00;11.90;;;;;;;9.55;86.64;99637.17;179897;1264;46326;-91
2023/04/23 01:29:42;;;;;;;14.90;11.10;;;;;;;9.52;86.63;99634.62;180035;1261;44877;-90
2023/04/23 01:33:45;;;;;;;17.40;10.70;;;;;;;9.53;86.59;99632.04;179085;1262;59619;-88
2023/04/23 01:37:53;;;;;;;14.50;12.50;;;;;;;9.55;86.49;99634.49;177974;1265;46056;-89
2023/04/23 01:41:57;;;;;;;13.80;9.60;;;;;;;9.53;86.45;99633.30;178500;1266;45879;-89
2023/04/23 01:46:00;;;;;;;17.40;10.40;;;;;;;9.45;87.27;99633.80;178431;1262;46179;-89
2023/04/23 01:50:04;;;;;;;11.10;9.50;;;;;;;9.46;87.13;99631.27;177969;1262;45963;-88
2023/04/23 01:54:08;;;;;;;19.30;10.80;;;;;;;9.47;86.74;99632.58;178383;1263;59322;-87
2023/04/23 01:58:11;;;;;;;13.30;9.50;;;;;;;9.49;86.51;99632.63;178093;1263;46169;-87
2023/04/23 02:02:15;;;;;;;17.90;13.00;;;;;;;9.45;86.61;99625.13;177774;1262;46050;-88
2023/04/23 02:06:18;;;;;;;14.40;12.00;;;;;;;9.46;86.58;99621.56;177417;1261;46144;-87
2023/04/23 02:10:22;;;;;;;19.60;13.70;;;;;;;9.47;86.56;99621.83;177851;1266;45921;-88
2023/04/23 02:14:25;;;;;;;18.20;12.60;;;;;;;9.47;86.41;99619.66;177874;1266;59611;-89
2023/04/23 02:18:28;;;;;;;16.40;11.80;;;;;;;9.47;86.56;99616.17;178227;1263;46016;-88
2023/04/23 02:22:32;;;;;;;12.10;10.10;;;;;;;9.42;86.86;99611.39;178717;1263;51970;-88
2023/04/23 02:26:35;;;;;;;12.80;9.00;;;;;;;9.38;87.04;99608.56;178093;1264;46073;-89
2023/04/23 02:30:45;;;;;;;15.50;11.10;;;;;;;9.36;87.36;99608.79;178640;1262;44718;-90
2023/04/23 02:35:02;;;;;;;12.60;9.80;;;;;;;9.33;87.40;99609.35;179755;1264;60594;-90
2023/04/23 02:39:06;;;;;;;13.00;8.90;;;;;;;9.32;87.40;99603.65;179048;1263;46091;-88
2023/04/23 02:43:10;;;;;;;15.80;9.10;;;;;;;9.31;87.30;99601.59;178869;1263;47608;-89
2023/04/23 02:47:13;;;;;;;13.70;10.20;;;;;;;9.35;86.92;99600.92;178811;1264;45997;-87
2023/04/23 02:51:16;;;;;;;15.80;9.40;;;;;;;9.39;86.41;99600.55;178463;1264;45999;-89
2023/04/23 02:55:20;;;;;;;14.50;10.40;;;;;;;9.41;86.28;99594.85;178429;1263;59340;-89
2023/04/23 02:59:24;;;;;;;11.40;9.50;;;;;;;9.45;86.48;99591.33;178422;1264;46004;-89
2023/04/23 03:03:30;;;;;;;12.20;10.30;;;;;;;9.47;86.63;99589.02;178493;1264;46148;-88
2023/04/23 03:07:35;;;;;;;16.30;9.40;;;;;;;9.48;86.78;99588.61;178267;1264;45966;-90
2023/04/23 03:11:38;;;;;;;21.70;10.90;;;;;;;9.51;86.45;99585.55;178482;1264;46071;-88
2023/04/23 03:15:42;;;;;;;27.40;10.80;;;;;;;9.57;85.92;99589.36;179192;1262;59581;-90
2023/04/23 03:19:46;;;;;;;15.10;9.40;;;;;;;9.59;85.59;99586.20;178741;1263;46451;-88
2023/04/23 03:23:50;;;;;;;20.90;10.20;;;;;;;9.60;85.37;99587.35;178129;1264;45894;-89
2023/04/23 03:27:53;;;;;;;14.70;10.00;;;;;;;9.63;85.15;99584.98;177992;1264;44783;-89
2023/04/23 03:31:57;;;;;;;16.10;11.80;;;;;;;9.60;85.12;99583.45;178577;1262;46180;-89
2023/04/23 03:36:01;;;;;;;16.80;11.80;;;;;;;9.53;85.28;99581.75;178400;1263;60173;-88
2023/04/23 03:40:06;;;;;;;12.70;11.10;;;;;;;9.43;85.71;99580.16;178376;1262;46145;-89
2023/04/23 03:44:10;;;;;;;22.30;13.10;;;;;;;9.35;86.02;99574.94;178648;1264;46351;-88
2023/04/23 03:48:13;;;;;;;21.50;12.20;;;;;;;9.23;86.25;99578.52;178884;1263;46045;-88
2023/04/23 03:52:18;;;;;;;15.70;12.30;;;;;;;9.16;86.83;99576.02;179012;1263;45040;-88
2023/04/23 03:56:21;;;;;;;14.20;10.90;;;;;;;9.16;87.29;99579.19;178493;1264;58315;-90
2023/04/23 04:00:27;;;;;;;14.60;10.40;;;;;;;9.16;87.63;99579.52;178576;1263;46508;-88
2023/04/23 04:04:31;;;;;;;17.50;12.20;;;;;;;9.20;87.75;99578.63;178583;1264;45971;-89
2023/04/23 04:08:35;;;;;;;18.60;13.50;;;;;;;9.36;87.78;99575.72;177913;1264;46034;-89
2023/04/23 04:12:39;;;;;;;15.50;11.40;;;;;;;9.68;86.83;99574.79;178855;1263;46028;-90
2023/04/23 04:16:49;;;;;;;15.90;11.70;;;;;;;10.08;85.05;99571.73;179337;1263;59454;-88
2023/04/23 04:20:53;;;;;;;23.80;12.80;;;;;;;10.57;83.54;99569.32;178977;1262;45914;-89
2023/04/23 04:24:57;;;;;;;22.40;10.50;;;;;;;10.88;82.35;99563.72;178426;1264;46089;-88
2023/04/23 04:29:00;;;;;;;14.00;10.70;;;;;;;11.42;80.62;99563.79;178190;1264;46134;-88
2023/04/23 04:33:04;;;;;;;15.60;10.60;;;;;;;12.04;78.39;99559.16;178213;1264;46127;-87
2023/04/23 04:37:09;;;;;;;15.10;10.00;;;;;;;12.62;76.23;99558.91;178008;1266;58769;-88
2023/04/23 04:41:14;;;;;;;12.80;9.80;;;;;;;13.16;74.05;99556.75;178298;1263;46113;-90
2023/04/23 04:45:18;;;;;;;10.90;9.20;;;;;;;13.66;72.09;99550.84;178500;1263;48797;-89
2023/04/23 04:49:22;;;;;;;11.20;8.40;;;;;;;14.19;70.63;99547.16;178909;1264;47804;-89
2023/04/23 04:53:26;;;;;;;11.10;8.70;;;;;;;14.59;69.13;99546.26;178888;1263;46040;-87
2023/04/23 04:57:29;;;;;;;11.20;9.00;;;;;;;14.91;67.92;99549.91;178697;1263;59248;-89
2023/04/23 05:01:33;;;;;;;15.40;9.10;;;;;;;15.14;67.51;99552.27;178434;1260;46258;-87
2023/04/23 05:05:36;;;;;;;19.20;15.90;;;;;;;15.46;67.22;99549.14;177290;1264;46091;-87
2023/04/23 05:09:39;;;;;;;24.60;19.30;;;;;;;15.79;66.52;99547.27;178091;1264;44292;-87
2023/04/23 05:13:47;;;;;;;27.30;24.00;;;;;;;16.15;65.99;99545.35;177759;1264;46114;-87
2023/04/23 05:17:52;;;;;;;16.80;15.10;;;;;;;16.43;64.99;99544.23;178690;1265;60116;-86
2023/04/23 05:21:55;;;;;;;15.90;13.60;;;;;;;16.72;64.74;99543.52;177725;1264;46083;-88
2023/04/23 05:25:58;;;;;;;17.10;10.70;;;;;;;16.83;64.92;99540.95;176909;1267;45965;-87
2023/04/23 05:30:04;;;;;;;25.00;22.30;;;;;;;17.00;65.33;99541.00;177541;1266;45948;-87
2023/04/23 05:34:07;;;;;;;39.60;22.50;;;;;;;17.34;65.18;99539.52;177544;1263;45990;-88
2023/04/23 05:38:10;;;;;;;13.00;9.60;;;;;;;17.72;65.04;99536.55;177006;1264;59471;-88
2023/04/23 05:42:13;;;;;;;12.40;8.20;;;;;;;18.02;65.11;99535.04;177104;1264;45998;-87
2023/04/23 05:46:17;;;;;;;14.20;9.50;;;;;;;18.09;66.10;99532.77;178412;1260;46123;-86
2023/04/23 05:50:21;;;;;;;9.60;8.70;;;;;;;18.11;65.85;99533.10;178247;1262;46035;-86
2023/04/23 05:54:24;;;;;;;11.70;7.60;;;;;;;18.06;66.65;99533.30;177418;1264;46097;-85
2023/04/23 05:58:27;;;;;;;8.30;7.10;;;;;;;18.21;67.18;99530.44;177929;1266;57790;-85
2023/04/23 06:02:32;;;;;;;13.90;8.50;;;;;;;18.44;66.66;99529.46;177725;1260;46125;-86
2023/04/23 06:06:35;;;;;;;13.90;7.30;;;;;;;18.48;67.42;99524.09;176982;1266;46123;-86
2023/04/23 06:10:39;;;;;;;10.30;7.10;;;;;;;18.44;67.85;99524.98;176896;1264;46090;-86
2023/04/23 06:14:42;;;;;;;11.80;7.00;;;;;;;18.35;68.56;99522.56;176820;1263;46563;-85
2023/04/23 06:18:46;;;;;;;11.90;7.50;;;;;;;18.19;68.63;99522.73;177147;1264;58607;-85
2023/04/23 06:22:50;;;;;;;15.60;8.50;;;;;;;17.96;69.78;99524.09;177535;1264;46144;-85
2023/04/23 06:26:53;;;;;;;10.10;6.70;;;;;;;17.88;70.52;99526.73;178807;1261;45313;-85
2023/04/23 06:30:56;;;;;;;8.40;6.50;;;;;;;17.95;71.35;99524.32;177286;1264;46068;-85
2023/04/23 06:34:59;;;;;;;12.40;7.20;;;;;;;18.17;73.15;99523.88;177216;1266;46030;-85
2023/04/23 06:39:04;;;;;;;12.60;6.70;;;;;;;18.70;72.45;99522.30;176855;1266;58312;-85
2023/04/23 06:43:08;;;;;;;8.10;6.50;;;;;;;19.23;71.78;99517.78;176830;1260;46169;-85
2023/04/23 06:47:11;;;;;;;10.60;6.50;;;;;;;19.51;70.08;99518.04;177235;1261;46012;-86
2023/04/23 06:51:15;;;;;;;10.70;5.60;;;;;;;19.82;68.65;99506.52;176842;1266;46057;-86
2023/04/23 06:55:18;;;;;;;8.60;5.10;;;;;;;20.18;68.36;99502.66;176901;1264;45993;-86
2023/04/23 06:59:21;;;;;;;8.70;5.80;;;;;;;20.35;65.75;99497.73;176721;1263;58745;-84
2023/04/23 07:03:28;;;;;;;7.80;5.90;;;;;;;20.51;62.77;99499.21;176588;1262;231931;-84
2023/04/23 07:07:32;;;;;;;6.70;4.60;;;;;;;20.69;62.36;99496.98;177352;1262;45951;-84
2023/04/23 07:11:35;;;;;;;10.30;4.40;;;;;;;20.75;61.88;99497.48;176677;1261;46063;-84
2023/04/23 07:15:40;;;;;;;8.60;5.70;;;;;;;20.92;62.35;99510.33;177029;1261;46212;-86
2023/04/23 07:19:43;;;;;;;6.20;5.10;;;;;;;21.14;61.80;99522.06;177310;1262;57924;-85
2023/04/23 07:23:46;;;;;;;5.40;4.70;;;;;;;21.27;60.54;99500.79;178144;1261;46029;-84
2023/04/23 07:27:49;;;;;;;7.70;5.00;;;;;;;21.24;58.76;99500.42;178379;1261;46042;-85
2023/04/23 07:36:51;;;;;;;5.40;4.60;;;;;;;21.05;57.67;99491.08;142241;1285;46296;-63
2023/04/23 07:41:24;;;;;;;6.10;4.80;;;;;;;20.97;59.12;99493.67;179859;1261;84106;-64
2023/04/23 07:45:27;;;;;;;8.20;4.60;;;;;;;20.83;58.17;99486.42;179685;1261;45927;-63
2023/04/23 07:49:30;;;;;;;9.20;5.90;;;;;;;20.55;60.65;99476.35;179623;1261;45001;-63
2023/04/23 07:53:34;;;;;;;12.90;5.60;;;;;;;20.34;61.09;99469.20;179890;1261;44720;-64
2023/04/23 07:57:38;;;;;;;10.60;4.70;;;;;;;20.34;63.31;99464.46;179996;1261;43708;-63
2023/04/23 08:01:41;;;;;;;12.40;5.00;;;;;;;20.51;63.75;99460.16;180211;1262;58382;-62
2023/04/23 08:05:45;;;;;;;9.90;5.40;;;;;;;20.71;65.35;99458.94;179973;1261;45926;-61
2023/04/23 08:09:49;;;;;;;9.50;5.90;;;;;;;20.89;63.49;99467.45;180080;1260;44927;-64
2023/04/23 08:13:52;;;;;;;9.10;4.70;;;;;;;21.21;61.01;99463.24;179954;1260;43570;-61
2023/04/23 08:18:21;;;;;;;12.60;6.30;;;;;;;21.51;61.11;99454.71;180064;1260;43554;-60
2023/04/23 08:22:24;;;;;;;6.60;4.30;;;;;;;21.74;59.64;99452.95;180060;1261;57895;-60
2023/04/23 08:26:27;;;;;;;7.40;4.70;;;;;;;21.68;59.81;99458.65;179941;1260;44792;-60
2023/04/23 08:30:30;;;;;;;13.10;7.80;;;;;;;21.57;61.14;99454.92;179935;1261;44018;-60
2023/04/23 08:34:36;;;;;;;8.50;4.70;;;;;;;21.49;60.98;99456.13;180012;1260;46058;-61
2023/04/23 08:38:40;;;;;;;6.80;5.20;;;;;;;21.60;62.37;99450.20;180006;1261;45920;-60
2023/04/23 08:43:19;;;;;;;4.70;4.20;;;;;;;21.67;61.72;99449.04;179900;1261;57450;-62
2023/04/23 08:47:24;;;;;;;11.30;8.00;;;;;;;21.83;62.51;99443.71;179866;1260;46091;-60
2023/04/23 08:51:33;;;;;;;8.50;5.80;;;;;;;22.05;60.96;99441.95;180245;1262;45886;-62
2023/04/23 08:55:36;;;;;;;5.00;4.20;;;;;;;22.33;61.45;99444.88;180441;1261;44874;-62
2023/04/23 08:59:39;;;;;;;10.80;5.20;;;;;;;22.41;59.51;99446.82;180542;1261;45858;-61
2023/04/23 09:03:45;;;;;;;8.00;5.60;;;;;;;22.25;59.39;99446.84;180472;1262;57709;-62
2023/04/23 09:07:52;;;;;;;7.10;5.00;;;;;;;22.24;59.54;99440.30;180055;1261;46127;-62
2023/04/23 09:11:57;;;;;;;7.50;5.80;;;;;;;22.36;60.70;99443.65;179907;1265;46098;-61
2023/04/23 09:16:00;;;;;;;9.20;5.70;;;;;;;22.58;60.67;99438.91;179875;1262;45862;-64
2023/04/23 09:20:05;;;;;;;9.00;4.80;;;;;;;22.76;61.53;99442.02;180057;1260;46007;-64
2023/04/23 09:24:17;;;;;;;;;;;;;;;22.64;58.31;99438.46;179770;1262;60475;-64
2023/04/23 09:28:20;;;;;;;6.80;5.60;;;;;;;22.60;60.08;99439.56;179847;1262;45734;-64
2023/04/23 09:32:34;;;;;;;17.40;8.30;;;;;;;22.65;60.64;99432.66;179729;1262;45936;-64
2023/04/23 09:36:37;;;;;;;6.20;5.20;;;;;;;22.71;62.60;99435.21;179849;1261;45971;-63
2023/04/23 09:45:34;;;;;;;6.40;4.70;;;;;;;23.01;59.84;99427.91;165827;1259;58515;-63
2023/04/23 09:49:49;;;;;;;10.10;6.20;;;;;;;23.20;58.35;99431.30;179890;1257;44579;-64
2023/04/23 09:53:54;;;;;;;9.70;5.40;;;;;;;23.32;58.06;99426.98;179990;1260;46136;-63
2023/04/23 09:57:57;;;;;;;10.90;6.20;;;;;;;23.33;58.53;99426.12;179940;1261;45006;-63
2023/04/23 10:02:05;;;;;;;7.40;5.60;;;;;;;23.40;61.09;99424.23;179715;1260;45910;-63
2023/04/23 10:06:14;;;;;;;5.30;4.00;;;;;;;23.52;62.10;99425.80;179844;1260;57978;-64
2023/04/23 10:10:38;;;;;;;10.70;5.60;;;;;;;23.66;59.07;99430.42;179713;1261;45875;-63
2023/04/23 10:15:25;;;;;;;6.70;4.80;;;;;;;23.82;60.51;99425.83;179760;1262;43513;-63
2023/04/23 10:19:31;;;;;;;8.60;5.40;;;;;;;23.92;59.22;99428.13;179619;1261;45915;-64
2023/04/23 10:23:37;;;;;;;8.70;5.80;;;;;;;24.07;58.33;99425.52;180223;1262;43723;-64
2023/04/23 10:27:45;;;;;;;8.80;5.50;;;;;;;24.10;58.52;99427.06;180361;1260;58214;-64
2023/04/23 10:32:00;;;;;;;5.10;3.80;;;;;;;24.15;61.60;99438.23;180526;1261;45146;-64
2023/04/23 10:36:03;;;;;;;4.10;3.10;;;;;;;24.09;61.12;99438.83;179884;1260;43825;-64
2023/04/23 10:40:13;;;;;;;4.40;4.00;;;;;;;23.95;62.17;99440.15;179788;1260;46033;-63
2023/04/23 10:44:21;;;;;;;5.00;3.50;;;;;;;23.74;63.50;99445.17;179916;1260;44314;-63
2023/04/23 10:49:05;;;;;;;2.50;2.30;;;;;;;23.51;66.04;99444.23;180017;1260;59267;-64
2023/04/23 10:53:21;;;;;;;2.30;1.60;;;;;;;23.27;63.81;99447.39;180028;1260;44250;-64
2023/04/23 10:57:24;;;;;;;;;;;;;;;23.04;64.61;99453.98;179901;1261;46001;-64
2023/04/23 11:01:31;;;;;;;3.90;1.90;;;;;;;22.90;65.53;99456.58;180045;1260;45827;-64
2023/04/23 11:05:34;;;;;;;2.70;1.60;;;;;;;22.90;69.18;99464.27;179779;1260;45964;-64
2023/04/23 11:09:40;;;;;;;2.70;2.00;;;;;;;22.88;66.37;99463.30;179753;1265;58803;-64
2023/04/23 11:13:55;;;;;;;1.60;1.50;;;;;;;22.67;63.70;99463.31;179913;1260;45892;-63
2023/04/23 11:18:00;;;;;;;3.80;1.60;;;;;;;22.42;64.94;99472.48;179862;1260;43780;-63
2023/04/23 11:22:19;;;;;;;2.60;1.90;;;;;;;22.11;66.60;99478.02;179922;1260;46063;-63
2023/04/23 11:26:30;;;;;;;4.60;1.80;;;;;;;21.92;67.45;99486.34;179976;1264;43470;-63
2023/04/23 11:30:39;;;;;;;2.90;2.10;;;;;;;21.72;70.62;99489.31;179856;1260;57725;-64
2023/04/23 11:34:45;;;;;;;6.70;2.30;;;;;;;21.47;72.53;99483.86;179795;1260;46042;-63
2023/04/23 11:38:48;;;;;;;5.50;2.30;;;;;;;21.37;71.98;99481.02;179751;1262;45911;-63
2023/04/23 11:42:53;;;;;;;2.80;2.40;;;;;;;21.13;71.73;99483.80;179673;1260;45926;-63
2023/04/23 11:47:01;;;;;;;2.90;2.20;;;;;;;20.86;70.18;99485.45;179845;1260;46137;-63
2023/04/23 11:51:04;;;;;;;4.30;1.60;;;;;;;20.75;72.18;99487.85;179770;1260;58253;-63
2023/04/23 11:55:07;;;;;;;1.20;1.10;;;;;;;20.73;70.58;99487.41;179680;1266;44366;-63
2023/04/23 11:59:10;;;;;;;1.50;1.00;;;;;;;20.80;70.25;99487.94;179534;1262;46018;-63
2023/04/23 12:03:15;;;;;;;2.70;1.80;;;;;;;20.91;70.97;99490.73;179499;1262;46025;-62
2023/04/23 12:07:18;;;;;;;1.80;1.20;;;;;;;21.06;69.58;99487.27;179437;1264;45978;-62
2023/04/23 12:11:29;;;;;;;1.80;1.40;;;;;;;21.27;69.91;99489.59;179620;1262;60267;-63
2023/04/23 12:38:25;;;;;;;1.60;1.40;;;;;;;21.56;74.41;99499.67;180064;1256;58635;-63
2023/04/23 12:42:31;;;;;;;2.50;1.50;;;;;;;21.64;70.72;99499.55;180594;1263;45301;-88
2023/04/23 12:51:11;;;;;;;2.70;2.30;;;;;;;21.85;73.01;99501.30;142800;1264;45140;-64
2023/04/23 12:55:13;;;;;;;3.90;2.90;;;;;;;21.96;73.75;99499.00;179446;1264;43600;-64
2023/04/23 12:59:16;;;;;;;4.60;3.20;;;;;;;21.96;72.81;99496.26;179869;1267;58414;-64
2023/04/23 13:03:19;;;;;;;6.40;4.50;;;;;;;22.00;70.23;99495.81;180143;1263;43682;-64
2023/04/23 13:07:22;;;;;;;5.50;4.20;;;;;;;21.98;68.46;99494.03;180316;1264;44126;-64
2023/04/23 13:11:25;;;;;;;5.50;4.50;;;;;;;21.89;68.80;99493.68;179871;1267;43612;-64
2023/04/23 13:15:28;;;;;;;6.10;3.70;;;;;;;21.70;68.31;99495.20;179577;1263;46023;-63
2023/04/23 13:19:34;;;;;;;10.50;6.60;;;;;;;21.56;68.00;99497.48;179488;1265;58425;-64
2023/04/23 13:23:45;;;;;;;9.70;5.60;;;;;;;21.35;68.00;99498.38;179516;1264;43977;-63
2023/04/23 13:27:48;;;;;;;8.20;5.00;;;;;;;21.10;68.49;99495.70;179275;1264;44938;-63
2023/04/23 13:31:51;;;;;;;12.40;5.00;;;;;;;20.84;68.81;99497.96;179344;1263;46063;-64
2023/04/23 13:35:55;;;;;;;6.10;4.40;;;;;;;20.61;69.68;99489.39;179162;1265;44770;-63
2023/04/23 13:40:00;;;;;;;8.50;4.90;;;;;;;20.45;70.83;99487.42;179391;1264;58500;-63
2023/04/23 13:44:02;;;;;;;5.30;4.80;;;;;;;20.31;71.26;99486.70;179361;1263;45068;-63
2023/04/23 13:48:06;;;;;;;7.10;6.40;;;;;;;20.14;70.88;99482.02;179552;1262;51179;-63
2023/04/23 13:52:13;;;;;;;6.70;5.00;;;;;;;19.96;71.07;99482.14;179541;1264;44739;-63
2023/04/23 13:56:16;;;;;;;8.00;4.50;;;;;;;19.88;72.43;99481.63;179444;1262;45008;-63
2023/04/23 14:00:19;;;;;;;7.30;4.70;;;;;;;19.83;72.94;99478.61;179294;1264;59075;-63
2023/04/23 14:04:23;;;;;;;6.50;4.60;;;;;;;19.75;72.77;99478.65;179348;1265;44100;-64
2023/04/23 14:08:26;;;;;;;6.10;5.50;;;;;;;19.65;72.96;99477.72;179498;1263;45982;-63
2023/04/23 14:12:29;;;;;;;7.80;6.80;;;;;;;19.58;73.77;99476.14;179532;1262;44864;-63
2023/04/23 14:16:32;;;;;;;11.30;6.30;;;;;;;19.48;74.51;99478.95;179485;1263;46082;-63
2023/04/23 14:20:35;;;;;;;8.10;5.50;;;;;;;19.33;75.81;99487.17;179452;1264;58436;-63
2023/04/23 14:24:45;;;;;;;11.00;7.00;;;;;;;19.21;79.18;99484.80;179472;1264;43790;-63
2023/04/23 14:28:51;;;;;;;10.50;7.00;;;;;;;19.04;79.78;99484.86;179637;1264;43935;-63
2023/04/23 14:32:55;;;;;;;8.50;6.20;;;;;;;18.96;81.44;99487.63;179584;1263;45979;-63
2023/04/23 14:37:06;;;;;;;5.50;5.00;;;;;;;18.87;82.31;99485.82;179746;1253;81148;-85
2023/04/23 14:41:15;;;;;;;6.90;5.10;;;;;;;18.84;81.12;99484.66;180417;1262;58530;-90
2023/04/23 14:45:41;;;;;;;9.20;6.80;;;;;;;18.85;81.22;99482.80;180363;1263;44694;-86
2023/04/23 14:49:45;;;;;;;9.00;7.00;;;;;;;18.76;82.42;99480.55;180403;1263;45999;-87
2023/04/23 14:53:53;;;;;;;7.30;5.80;;;;;;;18.67;83.55;99479.77;180382;1263;44816;-87
2023/04/23 14:58:00;;;;;;;6.40;5.20;;;;;;;18.59;84.48;99472.84;180491;1262;44630;-85
2023/04/23 15:02:03;;;;;;;6.00;4.90;;;;;;;18.64;86.42;99470.09;180315;1264;58327;-87
2023/04/23 15:06:07;;;;;;;6.30;5.30;;;;;;;18.67;87.35;99469.70;180389;1264;44709;-87
2023/04/23 15:14:49;;;;;;;10.50;7.00;;;;;;;18.89;88.57;99468.06;180983;1264;43867;-85
2023/04/23 15:18:53;;;;;;;;;;;;;;;18.99;87.83;99464.41;181046;1264;44074;-85
2023/04/23 15:32:27;;;;;;;7.10;6.30;;;;;;;19.07;85.17;99464.23;181103;1264;44039;-86
2023/04/23 15:36:32;;;;;;;7.50;6.10;;;;;;;19.02;86.47;99466.46;181077;1263;44355;-86
2023/04/23 15:40:40;;;;;;;8.50;6.60;;;;;;;18.89;86.93;99465.96;181069;1265;43986;-87
2023/04/23 15:44:47;;;;;;;8.60;6.40;;;;;;;18.92;87.08;99465.52;181142;1264;58217;-85
2023/04/23 15:48:51;;;;;;;9.30;5.80;;;;;;;18.96;85.54;99470.55;181000;1264;44221;-86
2023/04/23 15:52:57;;;;;;;110.20;64.90;;;;;;;18.84;85.07;99463.52;181011;1263;44108;-87
2023/04/23 15:57:01;;;;;;;;;;;;;;;18.87;84.50;99462.80;181141;1265;46900;-87
2023/04/23 16:01:05;;;;;;;8.70;6.40;;;;;;;18.93;83.63;99461.20;181091;1264;43649;-88
2023/04/23 16:05:10;;;;;;;5.30;4.20;;;;;;;18.91;82.93;99459.28;181078;1264;59374;-85
2023/04/23 16:09:16;;;;;;;3.50;3.10;;;;;;;18.78;83.74;99456.95;181105;1264;43989;-87
2023/04/23 16:13:19;;;;;;;;;;;;;;;18.62;84.64;99452.65;181110;1264;43788;-85
2023/04/23 16:17:23;;;;;;;3.30;2.90;;;;;;;18.51;84.67;99447.09;181147;1262;43819;-85
2023/04/23 16:21:28;;;;;;;6.50;5.40;;;;;;;18.43;85.05;99444.13;181164;1262;44038;-86
2023/04/23 16:25:32;;;;;;;10.50;7.10;;;;;;;18.36;85.03;99441.11;181089;1264;58451;-88
2023/04/23 16:29:38;;;;;;;9.20;7.10;;;;;;;18.31;83.93;99440.54;181069;1262;44169;-88
2023/04/23 16:33:42;;;;;;;20.40;13.20;;;;;;;18.27;84.38;99437.90;181255;1257;83545;-62
2023/04/23 16:37:44;;;;;;;12.10;10.00;;;;;;;18.31;84.72;99439.25;181465;1260;43153;-62
2023/04/23 16:41:47;;;;;;;17.70;12.10;;;;;;;18.34;84.79;99436.53;181379;1259;43489;-62
2023/04/23 16:45:50;;;;;;;57.90;34.70;;;;;;;18.36;84.57;99432.33;181345;1260;58344;-62
2023/04/23 16:49:53;;;;;;;43.90;31.20;;;;;;;18.39;84.55;99428.70;181595;1259;43073;-62
2023/04/23 16:53:56;;;;;;;44.20;24.40;;;;;;;18.36;84.50;99422.67;181637;1259;43244;-62
2023/04/23 16:57:59;;;;;;;92.60;49.40;;;;;;;18.27;83.38;99420.14;181587;1259;43333;-62
2023/04/23 17:02:51;;;;;;;38.70;25.20;;;;;;;18.01;83.29;99413.92;181556;1259;43724;-62
2023/04/23 17:07:21;;;;;;;26.40;17.60;;;;;;;17.66;82.84;99408.44;181457;1259;58041;-62
2023/04/23 17:11:28;;;;;;;19.00;11.40;;;;;;;17.46;83.35;99398.75;181606;1259;43456;-62
2023/04/23 17:15:31;;;;;;;13.00;9.30;;;;;;;17.27;84.18;99396.59;181397;1259;44128;-62
2023/04/23 17:19:53;;;;;;;20.20;10.90;;;;;;;17.10;87.70;99399.02;181572;1260;43098;-62
2023/04/23 17:23:56;;;;;;;13.30;8.80;;;;;;;17.04;89.95;99396.26;181607;1259;43016;-62
2023/04/23 17:27:59;;;;;;;14.70;10.30;;;;;;;17.04;89.85;99394.15;181393;1259;58506;-62
2023/04/23 17:32:03;;;;;;;10.20;7.00;;;;;;;17.05;89.53;99393.95;181481;1260;43134;-61
2023/04/23 17:36:06;;;;;;;10.50;6.10;;;;;;;17.07;88.09;99385.14;181559;1259;43875;-64
2023/04/23 17:40:09;;;;;;;12.40;8.30;;;;;;;17.05;87.57;99384.16;181396;1259;43656;-62
2023/04/23 17:48:30;;;;;;;24.80;18.40;;;;;;;17.09;87.29;99376.23;180965;1261;59652;-86
2023/04/23 17:52:33;;;;;;;25.30;20.00;;;;;;;17.16;87.91;99378.13;180850;1261;44280;-88
2023/04/23 17:56:37;;;;;;;22.00;15.50;;;;;;;17.22;87.73;99374.01;180919;1260;43873;-86
2023/04/23 18:00:41;;;;;;;16.90;9.00;;;;;;;17.15;87.94;99379.89;180936;1261;43858;-86
2023/04/23 18:04:44;;;;;;;14.30;9.40;;;;;;;17.10;88.44;99379.14;180922;1260;43871;-88
2023/04/23 18:08:48;;;;;;;6.80;4.30;;;;;;;16.97;89.61;99383.31;180870;1263;61392;-87
2023/04/23 18:12:51;;;;;;;11.10;6.30;;;;;;;16.77;91.11;99381.40;180767;1259;44216;-86
2023/04/23 18:16:54;;;;;;;8.00;4.60;;;;;;;16.43;93.37;99384.06;180824;1261;45032;-87
2023/04/23 18:20:58;;;;;;;8.00;6.20;;;;;;;16.25;93.77;99382.30;180787;1261;43800;-86
2023/04/23 18:25:01;;;;;;;8.50;7.60;;;;;;;16.22;93.68;99381.33;180843;1262;44026;-83
2023/04/23 18:29:04;;;;;;;8.80;6.60;;;;;;;16.17;93.89;99376.25;180729;1261;57320;-87
2023/04/23 18:33:18;;;;;;;8.70;6.40;;;;;;;16.01;94.61;99380.81;180859;1262;44271;-88
2023/04/23 18:37:31;;;;;;;8.50;6.60;;;;;;;15.83;96.05;99380.19;180840;1261;43825;-87
2023/04/23 18:41:36;;;;;;;9.10;7.00;;;;;;;15.85;96.24;99371.83;180803;1259;43835;-89
2023/04/23 18:45:39;;;;;;;9.50;5.90;;;;;;;15.83;95.70;99365.87;180863;1259;43957;-87
2023/04/23 18:49:45;;;;;;;9.70;6.80;;;;;;;15.76;96.85;99367.33;180871;1259;58223;-88
2023/04/23 18:53:48;;;;;;;8.40;6.90;;;;;;;15.66;98.53;99370.48;180830;1259;43956;-87
2023/04/23 18:57:52;;;;;;;8.10;6.60;;;;;;;15.64;98.59;99371.75;180967;1259;43918;-88
2023/04/23 19:01:55;;;;;;;12.50;8.50;;;;;;;15.70;97.63;99372.86;180856;1262;43914;-88
2023/04/23 19:05:59;;;;;;;14.30;7.80;;;;;;;15.79;96.92;99366.41;180731;1259;302562;-88
2023/04/23 19:10:02;;;;;;;12.50;5.80;;;;;;;15.83;96.85;99360.88;180900;1259;58052;-88
2023/04/23 19:14:06;;;;;;;10.40;6.30;;;;;;;15.91;96.26;99357.68;180913;1259;43878;-86
2023/04/23 19:18:12;;;;;;;11.40;5.70;;;;;;;15.95;96.00;99359.15;180702;1259;44283;-86
2023/04/23 19:22:16;;;;;;;7.80;5.10;;;;;;;15.91;95.35;99358.95;180917;1260;44040;-87
2023/04/23 19:26:20;;;;;;;10.60;6.70;;;;;;;15.91;94.98;99350.91;180985;1259;44442;-89
2023/04/23 19:30:23;;;;;;;9.40;7.20;;;;;;;15.84;95.78;99353.98;181019;1259;60224;-87
2023/04/23 19:34:27;;;;;;;7.50;5.80;;;;;;;15.67;97.07;99351.89;180842;1259;44071;-87
2023/04/23 19:38:31;;;;;;;13.50;7.70;;;;;;;15.62;97.22;99358.11;181088;1260;44206;-90
2023/04/23 19:42:36;;;;;;;12.80;8.40;;;;;;;15.46;98.77;99354.85;181119;1259;46815;-90
2023/04/23 19:46:41;;;;;;;12.20;8.20;;;;;;;15.40;99.07;99351.85;181098;1259;43751;-90
2023/04/23 19:50:47;;;;;;;11.20;8.00;;;;;;;15.25;99.94;99354.94;180891;1259;60329;-87
2023/04/23 19:59:12;;;;;;;14.70;9.10;;;;;;;15.34;99.65;99350.40;159680;1262;43929;-90